sensor_id;sensor_type;location;lat;lon;timestamp;temperature;humidity
1379;DHT22;683;48.738;9.226;2023-07-20T00:00:01;17.00;78.30
1379;DHT22;683;48.738;9.226;2023-07-20T00:02:39;16.90;79.00
1379;DHT22;683;48.738;9.226;2023-07-20T00:05:07;16.80;79.40
1379;DHT22;683;48.738;9.226;2023-07-20T00:07:35;16.70;79.30
1379;DHT22;683;48.738;9.226;2023-07-20T00:10:07;16.70;78.80
1379;DHT22;683;48.738;9.226;2023-07-20T00:12:35;16.60;78.70
1379;DHT22;683;48.738;9.226;2023-07-20T00:15:03;16.60;79.20
1379;DHT22;683;48.738;9.226;2023-07-20T00:17:30;16.50;78.50
1379;DHT22;683;48.738;9.226;2023-07-20T00:19:58;16.50;78.40
1379;DHT22;683;48.738;9.226;2023-07-20T00:22:25;16.30;78.60
1379;DHT22;683;48.738;9.226;2023-07-20T00:24:54;16.20;78.90
1379;DHT22;683;48.738;9.226;2023-07-20T00:27:22;16.20;77.00
1379;DHT22;683;48.738;9.226;2023-07-20T00:29:49;16.30;76.90
1379;DHT22;683;48.738;9.226;2023-07-20T00:32:19;16.30;77.30
1379;DHT22;683;48.738;9.226;2023-07-20T00:34:47;16.20;76.50
1379;DHT22;683;48.738;9.226;2023-07-20T00:37:14;16.20;76.10
1379;DHT22;683;48.738;9.226;2023-07-20T00:39:42;16.20;75.70
1379;DHT22;683;48.738;9.226;2023-07-20T00:42:10;16.20;75.50
1379;DHT22;683;48.738;9.226;2023-07-20T00:44:38;16.20;75.50
1379;DHT22;683;48.738;9.226;2023-07-20T00:47:07;16.10;75.20
1379;DHT22;683;48.738;9.226;2023-07-20T00:49:34;16.20;75.20
1379;DHT22;683;48.738;9.226;2023-07-20T00:52:07;16.20;75.20
1379;DHT22;683;48.738;9.226;2023-07-20T00:54:35;16.20;75.20
1379;DHT22;683;48.738;9.226;2023-07-20T00:57:06;16.10;75.20
1379;DHT22;683;48.738;9.226;2023-07-20T00:59:35;16.10;75.50
1379;DHT22;683;48.738;9.226;2023-07-20T01:02:03;16.00;75.80
1379;DHT22;683;48.738;9.226;2023-07-20T01:04:31;16.00;76.40
1379;DHT22;683;48.738;9.226;2023-07-20T01:07:12;15.90;76.90
1379;DHT22;683;48.738;9.226;2023-07-20T01:09:45;15.80;77.60
1379;DHT22;683;48.738;9.226;2023-07-20T01:12:20;15.80;78.30
1379;DHT22;683;48.738;9.226;2023-07-20T01:14:52;15.80;78.40
1379;DHT22;683;48.738;9.226;2023-07-20T01:17:20;15.80;78.00
1379;DHT22;683;48.738;9.226;2023-07-20T01:19:47;15.80;77.80
1379;DHT22;683;48.738;9.226;2023-07-20T01:22:27;15.80;77.60
1379;DHT22;683;48.738;9.226;2023-07-20T01:25:22;15.90;77.60
1379;DHT22;683;48.738;9.226;2023-07-20T01:30:56;15.80;77.90
1379;DHT22;683;48.738;9.226;2023-07-20T01:33:30;15.70;78.10
1379;DHT22;683;48.738;9.226;2023-07-20T01:36:00;15.60;78.60
1379;DHT22;683;48.738;9.226;2023-07-20T01:38:28;15.50;78.90
1379;DHT22;683;48.738;9.226;2023-07-20T01:40:56;15.50;79.40
1379;DHT22;683;48.738;9.226;2023-07-20T01:43:24;15.40;79.70
1379;DHT22;683;48.738;9.226;2023-07-20T01:45:51;15.30;80.30
1379;DHT22;683;48.738;9.226;2023-07-20T01:48:19;15.30;80.80
1379;DHT22;683;48.738;9.226;2023-07-20T01:50:48;15.20;81.50
1379;DHT22;683;48.738;9.226;2023-07-20T01:53:16;15.20;81.70
1379;DHT22;683;48.738;9.226;2023-07-20T01:55:43;15.10;82.20
1379;DHT22;683;48.738;9.226;2023-07-20T01:58:12;15.10;82.90
1379;DHT22;683;48.738;9.226;2023-07-20T02:00:39;15.00;83.50
1379;DHT22;683;48.738;9.226;2023-07-20T02:03:06;14.80;83.80
1379;DHT22;683;48.738;9.226;2023-07-20T02:05:34;14.80;84.50
1379;DHT22;683;48.738;9.226;2023-07-20T02:08:03;14.60;85.00
1379;DHT22;683;48.738;9.226;2023-07-20T02:10:30;14.50;86.00
1379;DHT22;683;48.738;9.226;2023-07-20T02:12:58;14.50;86.60
1379;DHT22;683;48.738;9.226;2023-07-20T02:15:26;14.40;87.20
1379;DHT22;683;48.738;9.226;2023-07-20T02:17:54;14.40;88.10
1379;DHT22;683;48.738;9.226;2023-07-20T02:20:22;14.40;88.70
1379;DHT22;683;48.738;9.226;2023-07-20T02:22:49;14.30;89.10
1379;DHT22;683;48.738;9.226;2023-07-20T02:25:18;14.30;89.70
1379;DHT22;683;48.738;9.226;2023-07-20T02:27:46;14.30;90.20
1379;DHT22;683;48.738;9.226;2023-07-20T02:30:14;14.30;90.50
1379;DHT22;683;48.738;9.226;2023-07-20T02:32:42;14.20;90.70
1379;DHT22;683;48.738;9.226;2023-07-20T02:35:11;14.20;91.00
1379;DHT22;683;48.738;9.226;2023-07-20T02:37:39;14.20;91.20
1379;DHT22;683;48.738;9.226;2023-07-20T02:40:07;14.20;91.30
1379;DHT22;683;48.738;9.226;2023-07-20T02:42:36;14.20;91.50
1379;DHT22;683;48.738;9.226;2023-07-20T02:45:05;14.20;91.70
1379;DHT22;683;48.738;9.226;2023-07-20T02:47:33;14.10;91.90
1379;DHT22;683;48.738;9.226;2023-07-20T02:50:02;14.10;92.10
1379;DHT22;683;48.738;9.226;2023-07-20T02:52:31;14.00;92.30
1379;DHT22;683;48.738;9.226;2023-07-20T02:54:58;14.00;92.50
1379;DHT22;683;48.738;9.226;2023-07-20T02:57:26;14.00;92.70
1379;DHT22;683;48.738;9.226;2023-07-20T02:59:54;13.90;92.80
1379;DHT22;683;48.738;9.226;2023-07-20T03:02:22;13.90;92.80
1379;DHT22;683;48.738;9.226;2023-07-20T03:04:49;13.90;93.00
1379;DHT22;683;48.738;9.226;2023-07-20T03:07:17;13.80;93.10
1379;DHT22;683;48.738;9.226;2023-07-20T03:09:44;13.80;93.30
1379;DHT22;683;48.738;9.226;2023-07-20T03:12:12;13.80;93.40
1379;DHT22;683;48.738;9.226;2023-07-20T03:14:39;13.80;93.60
1379;DHT22;683;48.738;9.226;2023-07-20T03:17:09;13.90;93.70
1379;DHT22;683;48.738;9.226;2023-07-20T03:19:36;13.90;93.70
1379;DHT22;683;48.738;9.226;2023-07-20T03:22:05;14.00;93.50
1379;DHT22;683;48.738;9.226;2023-07-20T03:24:32;14.10;93.20
1379;DHT22;683;48.738;9.226;2023-07-20T03:27:00;14.20;93.00
1379;DHT22;683;48.738;9.226;2023-07-20T03:29:27;14.30;92.70
1379;DHT22;683;48.738;9.226;2023-07-20T03:31:55;14.40;92.50
1379;DHT22;683;48.738;9.226;2023-07-20T03:34:23;14.50;92.20
1379;DHT22;683;48.738;9.226;2023-07-20T03:36:52;14.60;91.90
1379;DHT22;683;48.738;9.226;2023-07-20T03:39:19;14.70;91.70
1379;DHT22;683;48.738;9.226;2023-07-20T03:41:46;14.80;91.60
1379;DHT22;683;48.738;9.226;2023-07-20T03:44:14;14.80;91.50
1379;DHT22;683;48.738;9.226;2023-07-20T03:46:41;14.70;91.50
1379;DHT22;683;48.738;9.226;2023-07-20T03:49:09;14.80;91.50
1379;DHT22;683;48.738;9.226;2023-07-20T03:51:38;14.70;91.50
1379;DHT22;683;48.738;9.226;2023-07-20T03:54:06;14.80;91.60
1379;DHT22;683;48.738;9.226;2023-07-20T03:56:33;14.80;91.50
1379;DHT22;683;48.738;9.226;2023-07-20T03:59:01;14.90;91.40
1379;DHT22;683;48.738;9.226;2023-07-20T04:01:29;14.90;91.30
1379;DHT22;683;48.738;9.226;2023-07-20T04:04:05;14.90;91.20
1379;DHT22;683;48.738;9.226;2023-07-20T04:06:33;15.00;91.30
1379;DHT22;683;48.738;9.226;2023-07-20T04:09:03;15.00;91.20
1379;DHT22;683;48.738;9.226;2023-07-20T04:11:31;15.10;91.20
1379;DHT22;683;48.738;9.226;2023-07-20T04:13:58;15.10;91.10
1379;DHT22;683;48.738;9.226;2023-07-20T04:16:26;15.20;91.10
1379;DHT22;683;48.738;9.226;2023-07-20T04:18:55;15.30;91.00
1379;DHT22;683;48.738;9.226;2023-07-20T04:21:25;15.30;91.00
1379;DHT22;683;48.738;9.226;2023-07-20T04:23:52;15.40;90.90
1379;DHT22;683;48.738;9.226;2023-07-20T04:26:21;15.50;90.80
1379;DHT22;683;48.738;9.226;2023-07-20T04:28:49;15.80;90.60
1379;DHT22;683;48.738;9.226;2023-07-20T04:31:31;15.90;90.20
1379;DHT22;683;48.738;9.226;2023-07-20T04:34:00;16.10;90.20
1379;DHT22;683;48.738;9.226;2023-07-20T04:36:28;16.40;89.70
1379;DHT22;683;48.738;9.226;2023-07-20T04:38:56;16.50;88.60
1379;DHT22;683;48.738;9.226;2023-07-20T04:41:25;16.60;87.60
1379;DHT22;683;48.738;9.226;2023-07-20T04:43:55;16.60;87.40
1379;DHT22;683;48.738;9.226;2023-07-20T04:46:28;16.60;87.20
1379;DHT22;683;48.738;9.226;2023-07-20T04:48:57;16.70;87.10
1379;DHT22;683;48.738;9.226;2023-07-20T04:51:26;16.90;86.80
1379;DHT22;683;48.738;9.226;2023-07-20T04:53:56;17.00;86.50
1379;DHT22;683;48.738;9.226;2023-07-20T04:56:27;17.10;86.10
1379;DHT22;683;48.738;9.226;2023-07-20T04:58:56;17.20;85.60
1379;DHT22;683;48.738;9.226;2023-07-20T05:01:24;17.30;85.40
1379;DHT22;683;48.738;9.226;2023-07-20T05:03:52;17.30;84.90
1379;DHT22;683;48.738;9.226;2023-07-20T05:06:20;17.20;84.70
1379;DHT22;683;48.738;9.226;2023-07-20T05:08:48;17.30;85.10
1379;DHT22;683;48.738;9.226;2023-07-20T05:11:15;17.30;85.10
1379;DHT22;683;48.738;9.226;2023-07-20T05:13:44;17.40;85.00
1379;DHT22;683;48.738;9.226;2023-07-20T05:16:11;17.50;84.40
1379;DHT22;683;48.738;9.226;2023-07-20T05:18:39;17.60;84.20
1379;DHT22;683;48.738;9.226;2023-07-20T05:21:06;17.70;83.50
1379;DHT22;683;48.738;9.226;2023-07-20T05:23:34;17.80;83.10
1379;DHT22;683;48.738;9.226;2023-07-20T05:26:01;17.90;82.50
1379;DHT22;683;48.738;9.226;2023-07-20T05:28:29;17.90;82.20
1379;DHT22;683;48.738;9.226;2023-07-20T05:30:58;18.00;82.10
1379;DHT22;683;48.738;9.226;2023-07-20T05:33:25;18.10;82.20
1379;DHT22;683;48.738;9.226;2023-07-20T05:35:53;18.10;81.90
1379;DHT22;683;48.738;9.226;2023-07-20T05:38:20;18.10;81.50
1379;DHT22;683;48.738;9.226;2023-07-20T05:40:48;18.20;81.30
1379;DHT22;683;48.738;9.226;2023-07-20T05:43:16;18.30;80.90
1379;DHT22;683;48.738;9.226;2023-07-20T05:45:44;18.30;80.70
1379;DHT22;683;48.738;9.226;2023-07-20T05:48:13;18.40;80.60
1379;DHT22;683;48.738;9.226;2023-07-20T05:50:42;18.40;80.70
1379;DHT22;683;48.738;9.226;2023-07-20T05:53:10;18.40;80.90
1379;DHT22;683;48.738;9.226;2023-07-20T05:55:37;18.50;80.90
1379;DHT22;683;48.738;9.226;2023-07-20T05:58:05;18.60;80.60
1379;DHT22;683;48.738;9.226;2023-07-20T06:00:36;18.60;80.20
1379;DHT22;683;48.738;9.226;2023-07-20T06:03:03;18.70;80.20
1379;DHT22;683;48.738;9.226;2023-07-20T06:05:32;18.90;79.90
1379;DHT22;683;48.738;9.226;2023-07-20T06:08:00;19.00;79.50
1379;DHT22;683;48.738;9.226;2023-07-20T06:10:27;19.10;78.90
1379;DHT22;683;48.738;9.226;2023-07-20T06:12:57;19.10;77.60
1379;DHT22;683;48.738;9.226;2023-07-20T06:15:25;19.20;78.00
1379;DHT22;683;48.738;9.226;2023-07-20T06:17:54;19.20;77.90
1379;DHT22;683;48.738;9.226;2023-07-20T06:20:22;19.30;77.70
1379;DHT22;683;48.738;9.226;2023-07-20T06:22:50;19.30;77.40
1379;DHT22;683;48.738;9.226;2023-07-20T06:25:18;19.40;77.10
1379;DHT22;683;48.738;9.226;2023-07-20T06:27:46;19.40;76.50
1379;DHT22;683;48.738;9.226;2023-07-20T06:30:14;19.50;76.50
1379;DHT22;683;48.738;9.226;2023-07-20T06:32:41;19.60;76.20
1379;DHT22;683;48.738;9.226;2023-07-20T06:35:09;19.70;75.90
1379;DHT22;683;48.738;9.226;2023-07-20T06:37:36;19.80;75.50
1379;DHT22;683;48.738;9.226;2023-07-20T06:40:06;19.90;75.10
1379;DHT22;683;48.738;9.226;2023-07-20T06:42:35;20.00;74.50
1379;DHT22;683;48.738;9.226;2023-07-20T06:45:04;20.20;74.30
1379;DHT22;683;48.738;9.226;2023-07-20T06:47:32;20.20;73.30
1379;DHT22;683;48.738;9.226;2023-07-20T06:49:59;20.20;73.10
1379;DHT22;683;48.738;9.226;2023-07-20T06:52:27;20.20;73.20
1379;DHT22;683;48.738;9.226;2023-07-20T06:54:55;20.20;73.10
1379;DHT22;683;48.738;9.226;2023-07-20T06:57:25;20.40;73.00
1379;DHT22;683;48.738;9.226;2023-07-20T06:59:52;20.50;71.60
1379;DHT22;683;48.738;9.226;2023-07-20T07:02:20;20.50;71.30
1379;DHT22;683;48.738;9.226;2023-07-20T07:04:48;20.60;70.90
1379;DHT22;683;48.738;9.226;2023-07-20T07:07:15;20.50;70.90
1379;DHT22;683;48.738;9.226;2023-07-20T07:09:42;20.50;71.40
1379;DHT22;683;48.738;9.226;2023-07-20T07:12:10;20.40;71.60
1379;DHT22;683;48.738;9.226;2023-07-20T07:14:39;20.50;71.80
1379;DHT22;683;48.738;9.226;2023-07-20T07:17:06;20.60;71.70
1379;DHT22;683;48.738;9.226;2023-07-20T07:19:34;20.60;71.30
1379;DHT22;683;48.738;9.226;2023-07-20T07:22:05;20.50;71.10
1379;DHT22;683;48.738;9.226;2023-07-20T07:24:35;20.40;71.30
1379;DHT22;683;48.738;9.226;2023-07-20T07:27:03;20.30;71.60
1379;DHT22;683;48.738;9.226;2023-07-20T07:29:31;20.30;72.10
1379;DHT22;683;48.738;9.226;2023-07-20T07:32:00;20.40;72.10
1379;DHT22;683;48.738;9.226;2023-07-20T07:34:27;20.50;71.80
1379;DHT22;683;48.738;9.226;2023-07-20T07:37:00;20.70;71.30
1379;DHT22;683;48.738;9.226;2023-07-20T07:39:27;20.80;70.50
1379;DHT22;683;48.738;9.226;2023-07-20T07:41:56;20.90;70.40
1379;DHT22;683;48.738;9.226;2023-07-20T07:44:24;20.90;69.60
1379;DHT22;683;48.738;9.226;2023-07-20T07:46:52;21.00;69.90
1379;DHT22;683;48.738;9.226;2023-07-20T07:49:20;21.00;69.30
1379;DHT22;683;48.738;9.226;2023-07-20T07:51:48;21.00;69.60
1379;DHT22;683;48.738;9.226;2023-07-20T07:54:15;21.10;69.40
1379;DHT22;683;48.738;9.226;2023-07-20T07:56:43;21.20;69.10
1379;DHT22;683;48.738;9.226;2023-07-20T07:59:10;21.20;68.50
1379;DHT22;683;48.738;9.226;2023-07-20T08:01:38;21.30;68.60
1379;DHT22;683;48.738;9.226;2023-07-20T08:04:05;21.40;68.20
1379;DHT22;683;48.738;9.226;2023-07-20T08:06:35;21.60;67.90
1379;DHT22;683;48.738;9.226;2023-07-20T08:09:06;21.80;67.70
1379;DHT22;683;48.738;9.226;2023-07-20T08:11:55;22.10;66.60
1379;DHT22;683;48.738;9.226;2023-07-20T08:14:23;22.20;65.60
1379;DHT22;683;48.738;9.226;2023-07-20T08:16:50;22.30;64.90
1379;DHT22;683;48.738;9.226;2023-07-20T08:19:20;22.30;64.60
1379;DHT22;683;48.738;9.226;2023-07-20T08:21:48;22.40;63.70
1379;DHT22;683;48.738;9.226;2023-07-20T08:24:16;22.40;63.40
1379;DHT22;683;48.738;9.226;2023-07-20T08:26:43;22.60;63.00
1379;DHT22;683;48.738;9.226;2023-07-20T08:29:11;22.80;60.40
1379;DHT22;683;48.738;9.226;2023-07-20T08:31:39;22.90;60.30
1379;DHT22;683;48.738;9.226;2023-07-20T08:34:08;23.00;60.60
1379;DHT22;683;48.738;9.226;2023-07-20T08:36:36;22.90;60.50
1379;DHT22;683;48.738;9.226;2023-07-20T08:39:05;22.80;59.90
1379;DHT22;683;48.738;9.226;2023-07-20T08:41:34;22.60;60.40
1379;DHT22;683;48.738;9.226;2023-07-20T08:44:04;22.70;59.80
1379;DHT22;683;48.738;9.226;2023-07-20T08:46:32;22.80;59.40
1379;DHT22;683;48.738;9.226;2023-07-20T08:49:00;22.90;59.20
1379;DHT22;683;48.738;9.226;2023-07-20T08:51:30;23.10;58.90
1379;DHT22;683;48.738;9.226;2023-07-20T08:53:59;23.40;58.60
1379;DHT22;683;48.738;9.226;2023-07-20T08:56:28;23.80;57.30
1379;DHT22;683;48.738;9.226;2023-07-20T08:58:58;23.80;55.40
1379;DHT22;683;48.738;9.226;2023-07-20T09:01:27;23.60;55.60
1379;DHT22;683;48.738;9.226;2023-07-20T09:03:56;23.40;56.20
1379;DHT22;683;48.738;9.226;2023-07-20T09:06:23;23.00;56.90
1379;DHT22;683;48.738;9.226;2023-07-20T09:08:51;22.70;58.10
1379;DHT22;683;48.738;9.226;2023-07-20T09:11:18;22.70;58.40
1379;DHT22;683;48.738;9.226;2023-07-20T09:13:47;22.80;58.80
1379;DHT22;683;48.738;9.226;2023-07-20T09:16:16;23.00;58.00
1379;DHT22;683;48.738;9.226;2023-07-20T09:18:43;23.10;56.80
1379;DHT22;683;48.738;9.226;2023-07-20T09:21:11;23.30;55.90
1379;DHT22;683;48.738;9.226;2023-07-20T09:23:38;23.50;56.10
1379;DHT22;683;48.738;9.226;2023-07-20T09:26:10;23.70;55.20
1379;DHT22;683;48.738;9.226;2023-07-20T09:28:42;23.80;54.70
1379;DHT22;683;48.738;9.226;2023-07-20T09:31:17;23.70;56.20
1379;DHT22;683;48.738;9.226;2023-07-20T09:33:45;23.60;54.30
1379;DHT22;683;48.738;9.226;2023-07-20T09:36:12;23.50;54.70
1379;DHT22;683;48.738;9.226;2023-07-20T09:38:41;23.70;54.40
1379;DHT22;683;48.738;9.226;2023-07-20T09:41:13;23.70;54.10
1379;DHT22;683;48.738;9.226;2023-07-20T09:43:41;23.90;55.20
1379;DHT22;683;48.738;9.226;2023-07-20T09:46:09;24.40;55.00
1379;DHT22;683;48.738;9.226;2023-07-20T09:48:38;24.70;53.70
1379;DHT22;683;48.738;9.226;2023-07-20T09:51:07;24.90;52.60
1379;DHT22;683;48.738;9.226;2023-07-20T09:53:36;24.80;52.90
1379;DHT22;683;48.738;9.226;2023-07-20T09:56:05;24.60;52.70
1379;DHT22;683;48.738;9.226;2023-07-20T09:58:36;24.40;53.50
1379;DHT22;683;48.738;9.226;2023-07-20T10:01:06;24.10;53.40
1379;DHT22;683;48.738;9.226;2023-07-20T10:03:37;23.80;54.50
1379;DHT22;683;48.738;9.226;2023-07-20T10:06:08;23.50;54.40
1379;DHT22;683;48.738;9.226;2023-07-20T10:08:39;23.50;54.70
1379;DHT22;683;48.738;9.226;2023-07-20T10:11:08;23.60;54.20
1379;DHT22;683;48.738;9.226;2023-07-20T10:13:39;23.90;52.50
1379;DHT22;683;48.738;9.226;2023-07-20T10:16:11;24.20;52.00
1379;DHT22;683;48.738;9.226;2023-07-20T10:18:46;24.60;51.10
1379;DHT22;683;48.738;9.226;2023-07-20T10:21:17;25.00;51.50
1379;DHT22;683;48.738;9.226;2023-07-20T10:23:49;25.40;50.40
1379;DHT22;683;48.738;9.226;2023-07-20T10:26:17;25.80;50.20
1379;DHT22;683;48.738;9.226;2023-07-20T10:28:44;26.20;48.70
1379;DHT22;683;48.738;9.226;2023-07-20T10:31:12;26.40;48.30
1379;DHT22;683;48.738;9.226;2023-07-20T10:33:42;26.20;47.50
1379;DHT22;683;48.738;9.226;2023-07-20T10:36:11;26.00;48.40
1379;DHT22;683;48.738;9.226;2023-07-20T10:38:39;25.80;48.90
1379;DHT22;683;48.738;9.226;2023-07-20T10:41:16;25.60;48.50
1379;DHT22;683;48.738;9.226;2023-07-20T10:43:44;25.30;49.00
1379;DHT22;683;48.738;9.226;2023-07-20T10:46:43;25.10;50.40
1379;DHT22;683;48.738;9.226;2023-07-20T10:49:58;25.30;49.60
1379;DHT22;683;48.738;9.226;2023-07-20T10:52:25;25.50;48.60
1379;DHT22;683;48.738;9.226;2023-07-20T10:54:53;25.50;48.60
1379;DHT22;683;48.738;9.226;2023-07-20T10:57:38;25.70;48.30
1379;DHT22;683;48.738;9.226;2023-07-20T11:00:11;25.80;49.00
1379;DHT22;683;48.738;9.226;2023-07-20T11:02:43;25.90;48.80
1379;DHT22;683;48.738;9.226;2023-07-20T11:05:37;26.00;47.50
1379;DHT22;683;48.738;9.226;2023-07-20T11:08:10;26.00;47.30
1379;DHT22;683;48.738;9.226;2023-07-20T11:10:38;26.00;46.60
1379;DHT22;683;48.738;9.226;2023-07-20T11:13:17;25.80;47.30
1379;DHT22;683;48.738;9.226;2023-07-20T11:15:46;25.50;47.40
1379;DHT22;683;48.738;9.226;2023-07-20T11:18:16;25.40;48.50
1379;DHT22;683;48.738;9.226;2023-07-20T11:20:50;25.40;48.50
1379;DHT22;683;48.738;9.226;2023-07-20T11:23:18;25.50;47.90
1379;DHT22;683;48.738;9.226;2023-07-20T11:25:46;25.90;47.20
1379;DHT22;683;48.738;9.226;2023-07-20T11:28:14;26.10;45.70
1379;DHT22;683;48.738;9.226;2023-07-20T11:30:41;26.10;45.40
1379;DHT22;683;48.738;9.226;2023-07-20T11:33:09;26.20;45.40
1379;DHT22;683;48.738;9.226;2023-07-20T11:35:42;26.50;45.80
1379;DHT22;683;48.738;9.226;2023-07-20T11:38:13;26.60;44.20
1379;DHT22;683;48.738;9.226;2023-07-20T11:40:43;26.80;43.60
1379;DHT22;683;48.738;9.226;2023-07-20T11:43:13;27.00;43.40
1379;DHT22;683;48.738;9.226;2023-07-20T11:45:41;27.10;42.90
1379;DHT22;683;48.738;9.226;2023-07-20T11:48:14;26.90;42.50
1379;DHT22;683;48.738;9.226;2023-07-20T11:50:42;26.30;43.00
1379;DHT22;683;48.738;9.226;2023-07-20T11:53:10;26.00;44.10
1379;DHT22;683;48.738;9.226;2023-07-20T11:55:40;25.90;44.00
1379;DHT22;683;48.738;9.226;2023-07-20T11:58:08;26.10;45.40
1379;DHT22;683;48.738;9.226;2023-07-20T12:00:38;26.50;45.40
1379;DHT22;683;48.738;9.226;2023-07-20T12:03:13;27.00;44.10
1379;DHT22;683;48.738;9.226;2023-07-20T12:05:41;27.50;43.10
1379;DHT22;683;48.738;9.226;2023-07-20T12:08:08;27.70;42.70
1379;DHT22;683;48.738;9.226;2023-07-20T12:10:41;27.70;42.20
1379;DHT22;683;48.738;9.226;2023-07-20T12:13:10;27.30;42.10
1379;DHT22;683;48.738;9.226;2023-07-20T12:15:38;26.90;42.60
1379;DHT22;683;48.738;9.226;2023-07-20T12:18:06;26.60;42.90
1379;DHT22;683;48.738;9.226;2023-07-20T12:20:34;26.80;41.80
1379;DHT22;683;48.738;9.226;2023-07-20T12:23:04;27.90;41.70
1379;DHT22;683;48.738;9.226;2023-07-20T12:25:40;29.60;40.70
1379;DHT22;683;48.738;9.226;2023-07-20T12:28:09;30.90;36.60
1379;DHT22;683;48.738;9.226;2023-07-20T12:30:37;31.80;34.90
1379;DHT22;683;48.738;9.226;2023-07-20T12:33:05;32.80;33.70
1379;DHT22;683;48.738;9.226;2023-07-20T12:35:33;33.90;31.90
1379;DHT22;683;48.738;9.226;2023-07-20T12:38:01;34.50;31.30
1379;DHT22;683;48.738;9.226;2023-07-20T12:40:28;35.80;31.00
1379;DHT22;683;48.738;9.226;2023-07-20T12:42:57;37.20;29.10
1379;DHT22;683;48.738;9.226;2023-07-20T12:45:25;38.10;27.70
1379;DHT22;683;48.738;9.226;2023-07-20T12:47:52;38.50;27.00
1379;DHT22;683;48.738;9.226;2023-07-20T12:50:20;38.60;26.20
1379;DHT22;683;48.738;9.226;2023-07-20T12:52:47;38.60;25.80
1379;DHT22;683;48.738;9.226;2023-07-20T12:55:15;39.00;26.20
1379;DHT22;683;48.738;9.226;2023-07-20T12:57:43;39.60;26.20
1379;DHT22;683;48.738;9.226;2023-07-20T13:00:14;39.90;26.60
1379;DHT22;683;48.738;9.226;2023-07-20T13:02:42;40.30;25.70
1379;DHT22;683;48.738;9.226;2023-07-20T13:05:10;40.70;24.90
1379;DHT22;683;48.738;9.226;2023-07-20T13:07:38;40.80;23.50
1379;DHT22;683;48.738;9.226;2023-07-20T13:10:06;40.30;23.90
1379;DHT22;683;48.738;9.226;2023-07-20T13:12:35;40.20;24.10
1379;DHT22;683;48.738;9.226;2023-07-20T13:15:03;40.30;24.20
1379;DHT22;683;48.738;9.226;2023-07-20T13:17:37;40.90;23.70
1379;DHT22;683;48.738;9.226;2023-07-20T13:20:06;41.90;23.20
1379;DHT22;683;48.738;9.226;2023-07-20T13:22:36;42.30;22.70
1379;DHT22;683;48.738;9.226;2023-07-20T13:25:04;41.00;23.30
1379;DHT22;683;48.738;9.226;2023-07-20T13:27:32;39.30;24.20
1379;DHT22;683;48.738;9.226;2023-07-20T13:30:00;38.30;25.20
1379;DHT22;683;48.738;9.226;2023-07-20T13:32:32;39.30;25.30
1379;DHT22;683;48.738;9.226;2023-07-20T13:35:02;41.00;24.00
1379;DHT22;683;48.738;9.226;2023-07-20T13:37:29;42.50;22.90
1379;DHT22;683;48.738;9.226;2023-07-20T13:39:57;43.80;22.00
1379;DHT22;683;48.738;9.226;2023-07-20T13:42:24;44.40;21.50
1379;DHT22;683;48.738;9.226;2023-07-20T13:44:51;43.90;20.90
1379;DHT22;683;48.738;9.226;2023-07-20T13:47:19;43.90;21.60
1379;DHT22;683;48.738;9.226;2023-07-20T13:49:47;44.00;21.50
1379;DHT22;683;48.738;9.226;2023-07-20T13:52:15;43.50;21.00
1379;DHT22;683;48.738;9.226;2023-07-20T13:54:43;43.50;20.90
1379;DHT22;683;48.738;9.226;2023-07-20T13:57:10;43.70;20.50
1379;DHT22;683;48.738;9.226;2023-07-20T13:59:38;43.70;20.60
1379;DHT22;683;48.738;9.226;2023-07-20T14:02:05;44.50;20.40
1379;DHT22;683;48.738;9.226;2023-07-20T14:04:33;45.20;19.80
1379;DHT22;683;48.738;9.226;2023-07-20T14:07:00;45.20;19.50
1379;DHT22;683;48.738;9.226;2023-07-20T14:09:29;45.10;19.80
1379;DHT22;683;48.738;9.226;2023-07-20T14:11:56;45.40;19.80
1379;DHT22;683;48.738;9.226;2023-07-20T14:14:24;45.90;19.70
1379;DHT22;683;48.738;9.226;2023-07-20T14:16:51;45.00;19.40
1379;DHT22;683;48.738;9.226;2023-07-20T14:19:20;43.60;20.00
1379;DHT22;683;48.738;9.226;2023-07-20T14:21:47;43.30;20.80
1379;DHT22;683;48.738;9.226;2023-07-20T14:24:16;43.90;20.30
1379;DHT22;683;48.738;9.226;2023-07-20T14:26:45;43.90;20.10
1379;DHT22;683;48.738;9.226;2023-07-20T14:29:14;44.40;20.70
1379;DHT22;683;48.738;9.226;2023-07-20T14:31:41;45.00;19.70
1379;DHT22;683;48.738;9.226;2023-07-20T14:34:09;45.20;19.60
1379;DHT22;683;48.738;9.226;2023-07-20T14:36:37;44.80;19.70
1379;DHT22;683;48.738;9.226;2023-07-20T14:39:06;44.60;19.50
1379;DHT22;683;48.738;9.226;2023-07-20T14:41:34;44.70;19.80
1379;DHT22;683;48.738;9.226;2023-07-20T14:44:02;44.30;19.40
1379;DHT22;683;48.738;9.226;2023-07-20T14:46:30;43.80;19.40
1379;DHT22;683;48.738;9.226;2023-07-20T14:48:58;43.70;19.90
1379;DHT22;683;48.738;9.226;2023-07-20T14:51:25;42.80;20.30
1379;DHT22;683;48.738;9.226;2023-07-20T14:53:57;42.90;20.70
1379;DHT22;683;48.738;9.226;2023-07-20T14:56:25;43.20;20.00
1379;DHT22;683;48.738;9.226;2023-07-20T14:58:53;42.70;20.00
1379;DHT22;683;48.738;9.226;2023-07-20T15:01:24;43.00;20.50
1379;DHT22;683;48.738;9.226;2023-07-20T15:03:52;43.50;20.50
1379;DHT22;683;48.738;9.226;2023-07-20T15:06:20;43.90;20.50
1379;DHT22;683;48.738;9.226;2023-07-20T15:08:48;43.90;19.40
1379;DHT22;683;48.738;9.226;2023-07-20T15:11:15;43.80;19.30
1379;DHT22;683;48.738;9.226;2023-07-20T15:13:43;43.00;19.90
1379;DHT22;683;48.738;9.226;2023-07-20T15:16:10;41.20;20.80
1379;DHT22;683;48.738;9.226;2023-07-20T15:18:39;40.90;21.70
1379;DHT22;683;48.738;9.226;2023-07-20T15:21:06;41.30;21.10
1379;DHT22;683;48.738;9.226;2023-07-20T15:23:34;42.00;21.60
1379;DHT22;683;48.738;9.226;2023-07-20T15:26:01;42.60;21.40
1379;DHT22;683;48.738;9.226;2023-07-20T15:28:29;43.60;20.40
1379;DHT22;683;48.738;9.226;2023-07-20T15:31:00;43.20;19.30
1379;DHT22;683;48.738;9.226;2023-07-20T15:33:28;42.40;20.20
1379;DHT22;683;48.738;9.226;2023-07-20T15:35:57;42.00;20.50
1379;DHT22;683;48.738;9.226;2023-07-20T15:38:24;41.70;20.70
1379;DHT22;683;48.738;9.226;2023-07-20T15:40:52;42.30;20.40
1379;DHT22;683;48.738;9.226;2023-07-20T15:43:20;42.80;20.60
1379;DHT22;683;48.738;9.226;2023-07-20T15:45:48;43.30;19.50
1379;DHT22;683;48.738;9.226;2023-07-20T15:48:16;43.50;19.70
1379;DHT22;683;48.738;9.226;2023-07-20T15:50:45;43.80;19.40
1379;DHT22;683;48.738;9.226;2023-07-20T15:53:14;43.30;19.80
1379;DHT22;683;48.738;9.226;2023-07-20T15:55:42;42.90;19.90
1379;DHT22;683;48.738;9.226;2023-07-20T15:58:12;42.80;19.90
1379;DHT22;683;48.738;9.226;2023-07-20T16:00:42;43.10;19.70
1379;DHT22;683;48.738;9.226;2023-07-20T16:03:09;42.70;19.80
1379;DHT22;683;48.738;9.226;2023-07-20T16:05:37;41.90;20.30
1379;DHT22;683;48.738;9.226;2023-07-20T16:08:04;41.60;20.40
1379;DHT22;683;48.738;9.226;2023-07-20T16:10:33;40.20;21.20
1379;DHT22;683;48.738;9.226;2023-07-20T16:13:01;38.90;22.50
1379;DHT22;683;48.738;9.226;2023-07-20T16:15:28;37.30;23.70
1379;DHT22;683;48.738;9.226;2023-07-20T16:17:56;36.30;24.30
1379;DHT22;683;48.738;9.226;2023-07-20T16:20:23;35.50;25.20
1379;DHT22;683;48.738;9.226;2023-07-20T16:22:51;35.30;26.00
1379;DHT22;683;48.738;9.226;2023-07-20T16:25:18;35.80;25.00
1379;DHT22;683;48.738;9.226;2023-07-20T16:27:47;36.10;25.00
1379;DHT22;683;48.738;9.226;2023-07-20T16:30:14;36.10;25.50